sensor_id;sensor_type;location;lat;lon;timestamp;temperature;humidity
19880;DHT22;10102;50.828;4.416;2023-03-01T00:01:28;3.70;99.90
19880;DHT22;10102;50.828;4.416;2023-03-01T00:03:54;3.80;99.90
19880;DHT22;10102;50.828;4.416;2023-03-01T00:06:21;3.80;99.90
19880;DHT22;10102;50.828;4.416;2023-03-01T00:08:47;3.80;99.90
19880;DHT22;10102;50.828;4.416;2023-03-01T00:11:16;3.60;99.90
19880;DHT22;10102;50.828;4.416;2023-03-01T00:13:43;3.90;99.90
19880;DHT22;10102;50.828;4.416;2023-03-01T00:16:12;3.70;99.90
19880;DHT22;10102;50.828;4.416;2023-03-01T00:18:38;3.80;99.90
19880;DHT22;10102;50.828;4.416;2023-03-01T00:21:05;3.60;99.90
19880;DHT22;10102;50.828;4.416;2023-03-01T00:23:31;3.50;99.90
19880;DHT22;10102;50.828;4.416;2023-03-01T00:25:58;3.70;99.90
19880;DHT22;10102;50.828;4.416;2023-03-01T00:28:24;3.60;99.90
19880;DHT22;10102;50.828;4.416;2023-03-01T00:30:50;3.60;99.90
19880;DHT22;10102;50.828;4.416;2023-03-01T00:33:16;3.50;99.90
19880;DHT22;10102;50.828;4.416;2023-03-01T00:35:41;3.60;99.90
19880;DHT22;10102;50.828;4.416;2023-03-01T00:38:07;3.60;99.90
19880;DHT22;10102;50.828;4.416;2023-03-01T00:40:34;3.60;99.90
19880;DHT22;10102;50.828;4.416;2023-03-01T00:43:01;3.60;99.90
19880;DHT22;10102;50.828;4.416;2023-03-01T00:45:27;3.50;99.90
19880;DHT22;10102;50.828;4.416;2023-03-01T00:47:53;3.50;99.90
19880;DHT22;10102;50.828;4.416;2023-03-01T00:50:20;3.40;99.90
19880;DHT22;10102;50.828;4.416;2023-03-01T00:52:46;3.40;99.90
19880;DHT22;10102;50.828;4.416;2023-03-01T00:55:12;3.30;99.90
19880;DHT22;10102;50.828;4.416;2023-03-01T00:57:37;3.20;99.90
19880;DHT22;10102;50.828;4.416;2023-03-01T01:00:05;3.20;99.90
19880;DHT22;10102;50.828;4.416;2023-03-01T01:02:34;3.10;99.90
19880;DHT22;10102;50.828;4.416;2023-03-01T01:07:26;3.10;99.90
19880;DHT22;10102;50.828;4.416;2023-03-01T01:09:52;2.80;99.90
19880;DHT22;10102;50.828;4.416;2023-03-01T01:12:18;3.10;99.90
19880;DHT22;10102;50.828;4.416;2023-03-01T01:14:44;3.20;99.90
19880;DHT22;10102;50.828;4.416;2023-03-01T01:17:09;3.20;99.90
19880;DHT22;10102;50.828;4.416;2023-03-01T01:22:01;3.10;99.90
19880;DHT22;10102;50.828;4.416;2023-03-01T01:24:26;3.00;99.90
19880;DHT22;10102;50.828;4.416;2023-03-01T01:26:52;3.10;99.90
19880;DHT22;10102;50.828;4.416;2023-03-01T01:31:44;3.00;99.90
19880;DHT22;10102;50.828;4.416;2023-03-01T01:34:15;3.10;99.90
19880;DHT22;10102;50.828;4.416;2023-03-01T01:36:41;3.00;99.90
19880;DHT22;10102;50.828;4.416;2023-03-01T01:41:33;3.00;99.90
19880;DHT22;10102;50.828;4.416;2023-03-01T01:44:23;3.10;99.90
19880;DHT22;10102;50.828;4.416;2023-03-01T01:47:05;3.00;99.90
19880;DHT22;10102;50.828;4.416;2023-03-01T01:49:52;3.10;99.90
19880;DHT22;10102;50.828;4.416;2023-03-01T01:54:57;3.00;99.90
19880;DHT22;10102;50.828;4.416;2023-03-01T01:57:34;3.00;99.90
19880;DHT22;10102;50.828;4.416;2023-03-01T02:00:20;2.80;99.90
19880;DHT22;10102;50.828;4.416;2023-03-01T02:02:47;2.50;99.90
19880;DHT22;10102;50.828;4.416;2023-03-01T02:05:43;2.80;99.90
19880;DHT22;10102;50.828;4.416;2023-03-01T02:08:13;2.80;99.90
19880;DHT22;10102;50.828;4.416;2023-03-01T02:10:41;2.80;99.90
19880;DHT22;10102;50.828;4.416;2023-03-01T02:13:07;2.90;99.90
19880;DHT22;10102;50.828;4.416;2023-03-01T02:15:33;2.90;99.90
19880;DHT22;10102;50.828;4.416;2023-03-01T02:18:00;2.90;99.90
19880;DHT22;10102;50.828;4.416;2023-03-01T02:23:01;2.80;99.90
19880;DHT22;10102;50.828;4.416;2023-03-01T02:30:40;2.70;99.90
19880;DHT22;10102;50.828;4.416;2023-03-01T02:35:54;2.50;99.90
19880;DHT22;10102;50.828;4.416;2023-03-01T02:38:20;2.60;99.90
19880;DHT22;10102;50.828;4.416;2023-03-01T02:40:50;3.90;99.90
19880;DHT22;10102;50.828;4.416;2023-03-01T02:43:18;2.70;99.90
19880;DHT22;10102;50.828;4.416;2023-03-01T02:45:52;2.70;99.90
19880;DHT22;10102;50.828;4.416;2023-03-01T02:48:19;2.60;99.90
19880;DHT22;10102;50.828;4.416;2023-03-01T02:53:39;2.50;99.90
19880;DHT22;10102;50.828;4.416;2023-03-01T02:56:07;2.50;99.90
19880;DHT22;10102;50.828;4.416;2023-03-01T02:58:42;2.20;99.90
19880;DHT22;10102;50.828;4.416;2023-03-01T03:01:11;2.70;99.90
19880;DHT22;10102;50.828;4.416;2023-03-01T03:06:03;2.30;99.90
19880;DHT22;10102;50.828;4.416;2023-03-01T03:08:29;2.40;99.90
19880;DHT22;10102;50.828;4.416;2023-03-01T03:13:21;2.40;99.90
19880;DHT22;10102;50.828;4.416;2023-03-01T03:15:47;2.10;99.90
19880;DHT22;10102;50.828;4.416;2023-03-01T03:18:16;2.20;99.90
19880;DHT22;10102;50.828;4.416;2023-03-01T03:20:42;2.10;99.90
19880;DHT22;10102;50.828;4.416;2023-03-01T03:23:08;2.20;99.90
19880;DHT22;10102;50.828;4.416;2023-03-01T03:25:34;2.10;99.90
19880;DHT22;10102;50.828;4.416;2023-03-01T03:28:03;2.00;99.90
19880;DHT22;10102;50.828;4.416;2023-03-01T03:30:37;2.10;99.90
19880;DHT22;10102;50.828;4.416;2023-03-01T03:33:05;2.20;99.90
19880;DHT22;10102;50.828;4.416;2023-03-01T03:35:46;2.30;99.90
19880;DHT22;10102;50.828;4.416;2023-03-01T03:38:14;2.30;99.90
19880;DHT22;10102;50.828;4.416;2023-03-01T03:40:45;2.30;99.90
19880;DHT22;10102;50.828;4.416;2023-03-01T03:43:20;2.20;99.90
19880;DHT22;10102;50.828;4.416;2023-03-01T03:45:47;2.30;99.90
19880;DHT22;10102;50.828;4.416;2023-03-01T03:48:14;2.40;99.90
19880;DHT22;10102;50.828;4.416;2023-03-01T03:50:40;2.30;99.90
19880;DHT22;10102;50.828;4.416;2023-03-01T03:53:11;2.00;99.90
19880;DHT22;10102;50.828;4.416;2023-03-01T03:55:37;1.90;99.90
19880;DHT22;10102;50.828;4.416;2023-03-01T03:58:06;2.00;99.90
19880;DHT22;10102;50.828;4.416;2023-03-01T04:00:34;2.00;99.90
19880;DHT22;10102;50.828;4.416;2023-03-01T04:05:27;2.00;99.90
19880;DHT22;10102;50.828;4.416;2023-03-01T04:07:53;2.10;99.90
19880;DHT22;10102;50.828;4.416;2023-03-01T04:10:31;2.10;99.90
19880;DHT22;10102;50.828;4.416;2023-03-01T04:12:57;2.10;99.90
19880;DHT22;10102;50.828;4.416;2023-03-01T04:15:24;2.10;99.90
19880;DHT22;10102;50.828;4.416;2023-03-01T04:17:54;2.10;99.90
19880;DHT22;10102;50.828;4.416;2023-03-01T04:20:26;2.10;99.90
19880;DHT22;10102;50.828;4.416;2023-03-01T04:22:59;2.00;99.90
19880;DHT22;10102;50.828;4.416;2023-03-01T04:25:25;2.10;99.90
19880;DHT22;10102;50.828;4.416;2023-03-01T04:27:51;2.20;99.90
19880;DHT22;10102;50.828;4.416;2023-03-01T04:35:09;2.10;99.90
19880;DHT22;10102;50.828;4.416;2023-03-01T04:40:02;2.00;99.90
19880;DHT22;10102;50.828;4.416;2023-03-01T04:42:37;2.10;99.90
19880;DHT22;10102;50.828;4.416;2023-03-01T04:45:04;1.90;99.90
19880;DHT22;10102;50.828;4.416;2023-03-01T04:47:39;2.30;99.90
19880;DHT22;10102;50.828;4.416;2023-03-01T04:50:05;1.50;99.90
19880;DHT22;10102;50.828;4.416;2023-03-01T04:54:57;1.80;99.90
19880;DHT22;10102;50.828;4.416;2023-03-01T04:57:23;1.80;99.90
19880;DHT22;10102;50.828;4.416;2023-03-01T04:59:48;1.80;99.90
19880;DHT22;10102;50.828;4.416;2023-03-01T05:02:14;1.30;99.90
19880;DHT22;10102;50.828;4.416;2023-03-01T05:04:42;1.70;99.90
19880;DHT22;10102;50.828;4.416;2023-03-01T05:07:08;1.70;99.90
19880;DHT22;10102;50.828;4.416;2023-03-01T05:12:00;1.70;99.90
19880;DHT22;10102;50.828;4.416;2023-03-01T05:14:26;1.70;99.90
19880;DHT22;10102;50.828;4.416;2023-03-01T05:16:51;1.60;99.90
19880;DHT22;10102;50.828;4.416;2023-03-01T05:19:17;1.70;99.90
19880;DHT22;10102;50.828;4.416;2023-03-01T05:21:48;1.60;99.90
19880;DHT22;10102;50.828;4.416;2023-03-01T05:24:34;1.80;99.90
19880;DHT22;10102;50.828;4.416;2023-03-01T05:27:00;1.60;99.90
19880;DHT22;10102;50.828;4.416;2023-03-01T05:29:28;1.50;99.90
19880;DHT22;10102;50.828;4.416;2023-03-01T05:31:56;1.60;99.90
19880;DHT22;10102;50.828;4.416;2023-03-01T05:34:32;1.60;99.90
19880;DHT22;10102;50.828;4.416;2023-03-01T05:36:59;1.60;99.90
19880;DHT22;10102;50.828;4.416;2023-03-01T05:39:28;1.60;99.90
19880;DHT22;10102;50.828;4.416;2023-03-01T05:41:56;1.60;99.90
19880;DHT22;10102;50.828;4.416;2023-03-01T05:44:22;1.50;99.90
19880;DHT22;10102;50.828;4.416;2023-03-01T05:49:15;1.50;99.90
19880;DHT22;10102;50.828;4.416;2023-03-01T05:51:42;1.40;99.90
19880;DHT22;10102;50.828;4.416;2023-03-01T05:54:09;1.50;99.90
19880;DHT22;10102;50.828;4.416;2023-03-01T05:56:36;1.50;99.90
19880;DHT22;10102;50.828;4.416;2023-03-01T05:59:03;1.50;99.90
19880;DHT22;10102;50.828;4.416;2023-03-01T06:01:34;1.30;99.90
19880;DHT22;10102;50.828;4.416;2023-03-01T06:04:00;1.40;99.90
19880;DHT22;10102;50.828;4.416;2023-03-01T06:06:26;1.40;99.90
19880;DHT22;10102;50.828;4.416;2023-03-01T06:08:53;1.40;99.90
19880;DHT22;10102;50.828;4.416;2023-03-01T06:11:19;1.50;99.90
19880;DHT22;10102;50.828;4.416;2023-03-01T06:13:45;1.30;99.90
19880;DHT22;10102;50.828;4.416;2023-03-01T06:16:12;1.60;99.90
19880;DHT22;10102;50.828;4.416;2023-03-01T06:21:04;1.50;99.90
19880;DHT22;10102;50.828;4.416;2023-03-01T06:23:30;1.50;99.90
19880;DHT22;10102;50.828;4.416;2023-03-01T06:25:56;1.60;99.90
19880;DHT22;10102;50.828;4.416;2023-03-01T06:28:22;1.50;99.90
19880;DHT22;10102;50.828;4.416;2023-03-01T06:30:50;1.60;99.90
19880;DHT22;10102;50.828;4.416;2023-03-01T06:33:18;1.00;99.90
19880;DHT22;10102;50.828;4.416;2023-03-01T06:35:46;1.60;99.90
19880;DHT22;10102;50.828;4.416;2023-03-01T06:38:12;1.50;99.90
19880;DHT22;10102;50.828;4.416;2023-03-01T06:40:40;1.50;99.90
19880;DHT22;10102;50.828;4.416;2023-03-01T06:43:06;1.40;99.90
19880;DHT22;10102;50.828;4.416;2023-03-01T06:45:33;1.50;99.90
19880;DHT22;10102;50.828;4.416;2023-03-01T06:48:03;1.50;99.90
19880;DHT22;10102;50.828;4.416;2023-03-01T06:50:29;1.40;99.90
19880;DHT22;10102;50.828;4.416;2023-03-01T06:52:56;1.40;99.90
19880;DHT22;10102;50.828;4.416;2023-03-01T06:55:32;1.40;99.90
19880;DHT22;10102;50.828;4.416;2023-03-01T06:57:59;1.40;99.90
19880;DHT22;10102;50.828;4.416;2023-03-01T07:02:52;1.60;99.90
19880;DHT22;10102;50.828;4.416;2023-03-01T07:05:20;1.70;99.90
19880;DHT22;10102;50.828;4.416;2023-03-01T07:10:14;1.60;99.90
19880;DHT22;10102;50.828;4.416;2023-03-01T07:12:39;1.70;99.90
19880;DHT22;10102;50.828;4.416;2023-03-01T07:15:09;1.80;99.90
19880;DHT22;10102;50.828;4.416;2023-03-01T07:17:36;1.80;99.90
19880;DHT22;10102;50.828;4.416;2023-03-01T07:20:02;1.80;99.90
19880;DHT22;10102;50.828;4.416;2023-03-01T07:24:55;1.60;99.90
19880;DHT22;10102;50.828;4.416;2023-03-01T07:27:20;1.90;99.90
19880;DHT22;10102;50.828;4.416;2023-03-01T07:29:52;1.90;99.90
19880;DHT22;10102;50.828;4.416;2023-03-01T07:32:18;1.90;99.90
19880;DHT22;10102;50.828;4.416;2023-03-01T07:34:43;2.00;99.90
19880;DHT22;10102;50.828;4.416;2023-03-01T07:39:36;2.00;99.90
19880;DHT22;10102;50.828;4.416;2023-03-01T07:44:28;2.10;99.90
19880;DHT22;10102;50.828;4.416;2023-03-01T07:46:53;2.10;99.90
19880;DHT22;10102;50.828;4.416;2023-03-01T07:49:22;2.10;99.90
19880;DHT22;10102;50.828;4.416;2023-03-01T07:54:13;2.20;99.90
19880;DHT22;10102;50.828;4.416;2023-03-01T07:56:39;2.30;99.90
19880;DHT22;10102;50.828;4.416;2023-03-01T08:01:32;2.20;99.90
19880;DHT22;10102;50.828;4.416;2023-03-01T08:03:58;2.20;99.90
19880;DHT22;10102;50.828;4.416;2023-03-01T08:06:24;2.30;99.90
19880;DHT22;10102;50.828;4.416;2023-03-01T08:11:16;2.40;99.90
19880;DHT22;10102;50.828;4.416;2023-03-01T08:13:43;2.30;99.90
19880;DHT22;10102;50.828;4.416;2023-03-01T08:16:13;2.60;99.90
19880;DHT22;10102;50.828;4.416;2023-03-01T08:18:40;2.80;99.90
19880;DHT22;10102;50.828;4.416;2023-03-01T08:21:11;2.60;99.90
19880;DHT22;10102;50.828;4.416;2023-03-01T08:23:37;2.70;99.90
19880;DHT22;10102;50.828;4.416;2023-03-01T08:26:05;2.70;99.90
19880;DHT22;10102;50.828;4.416;2023-03-01T08:28:31;2.80;99.90
19880;DHT22;10102;50.828;4.416;2023-03-01T08:33:23;2.60;99.90
19880;DHT22;10102;50.828;4.416;2023-03-01T08:35:49;3.00;99.90
19880;DHT22;10102;50.828;4.416;2023-03-01T08:38:14;3.50;99.90
19880;DHT22;10102;50.828;4.416;2023-03-01T08:40:40;3.30;99.90
19880;DHT22;10102;50.828;4.416;2023-03-01T08:43:06;3.40;99.90
19880;DHT22;10102;50.828;4.416;2023-03-01T08:45:31;3.40;99.90
19880;DHT22;10102;50.828;4.416;2023-03-01T08:50:23;3.30;99.90
19880;DHT22;10102;50.828;4.416;2023-03-01T08:52:50;3.30;99.90
19880;DHT22;10102;50.828;4.416;2023-03-01T08:55:16;3.40;99.90
19880;DHT22;10102;50.828;4.416;2023-03-01T09:00:09;3.50;99.90
19880;DHT22;10102;50.828;4.416;2023-03-01T09:02:37;3.60;99.90
19880;DHT22;10102;50.828;4.416;2023-03-01T09:07:29;4.20;99.90
19880;DHT22;10102;50.828;4.416;2023-03-01T09:09:54;3.80;99.90
19880;DHT22;10102;50.828;4.416;2023-03-01T09:12:20;3.70;99.90
19880;DHT22;10102;50.828;4.416;2023-03-01T09:14:46;3.80;99.90
19880;DHT22;10102;50.828;4.416;2023-03-01T09:17:12;3.90;99.90
19880;DHT22;10102;50.828;4.416;2023-03-01T09:19:38;4.20;99.90
19880;DHT22;10102;50.828;4.416;2023-03-01T09:22:06;4.20;99.90
19880;DHT22;10102;50.828;4.416;2023-03-01T09:24:32;4.30;99.90
19880;DHT22;10102;50.828;4.416;2023-03-01T09:30:20;4.40;99.90
19880;DHT22;10102;50.828;4.416;2023-03-01T09:32:46;4.60;99.90
19880;DHT22;10102;50.828;4.416;2023-03-01T09:35:12;4.40;99.90
19880;DHT22;10102;50.828;4.416;2023-03-01T09:37:38;4.30;99.90
19880;DHT22;10102;50.828;4.416;2023-03-01T09:40:28;4.30;99.90
19880;DHT22;10102;50.828;4.416;2023-03-01T09:43:02;4.10;99.90
19880;DHT22;10102;50.828;4.416;2023-03-01T09:45:38;4.10;99.90
19880;DHT22;10102;50.828;4.416;2023-03-01T09:48:12;4.00;99.90
19880;DHT22;10102;50.828;4.416;2023-03-01T09:50:43;4.10;99.90
19880;DHT22;10102;50.828;4.416;2023-03-01T09:53:22;4.20;99.90
19880;DHT22;10102;50.828;4.416;2023-03-01T09:56:16;4.30;99.90
19880;DHT22;10102;50.828;4.416;2023-03-01T10:01:44;4.80;99.90
19880;DHT22;10102;50.828;4.416;2023-03-01T10:07:23;5.20;99.90
19880;DHT22;10102;50.828;4.416;2023-03-01T10:09:52;5.60;99.90
19880;DHT22;10102;50.828;4.416;2023-03-01T10:12:20;5.80;99.90
19880;DHT22;10102;50.828;4.416;2023-03-01T10:14:54;6.10;99.90
19880;DHT22;10102;50.828;4.416;2023-03-01T10:17:51;6.30;99.90
19880;DHT22;10102;50.828;4.416;2023-03-01T10:20:24;6.50;99.90
19880;DHT22;10102;50.828;4.416;2023-03-01T10:22:51;6.50;99.90
19880;DHT22;10102;50.828;4.416;2023-03-01T10:31:24;7.00;99.90
19880;DHT22;10102;50.828;4.416;2023-03-01T10:33:55;7.70;99.90
19880;DHT22;10102;50.828;4.416;2023-03-01T10:36:24;8.00;99.90
19880;DHT22;10102;50.828;4.416;2023-03-01T10:38:55;8.70;99.90
19880;DHT22;10102;50.828;4.416;2023-03-01T10:41:23;8.60;99.90
19880;DHT22;10102;50.828;4.416;2023-03-01T10:43:52;9.20;99.90
19880;DHT22;10102;50.828;4.416;2023-03-01T10:46:33;10.20;99.90
19880;DHT22;10102;50.828;4.416;2023-03-01T10:49:21;11.50;99.90
19880;DHT22;10102;50.828;4.416;2023-03-01T10:51:51;13.60;99.90
19880;DHT22;10102;50.828;4.416;2023-03-01T10:54:31;16.00;99.90
19880;DHT22;10102;50.828;4.416;2023-03-01T10:57:00;15.90;99.90
19880;DHT22;10102;50.828;4.416;2023-03-01T11:07:25;20.30;80.80
19880;DHT22;10102;50.828;4.416;2023-03-01T11:09:51;21.00;73.70
19880;DHT22;10102;50.828;4.416;2023-03-01T11:12:17;21.50;71.70
19880;DHT22;10102;50.828;4.416;2023-03-01T11:14:50;21.80;69.20
19880;DHT22;10102;50.828;4.416;2023-03-01T11:17:27;22.20;67.90
19880;DHT22;10102;50.828;4.416;2023-03-01T11:22:58;24.00;62.80
19880;DHT22;10102;50.828;4.416;2023-03-01T11:25:27;24.30;60.80
19880;DHT22;10102;50.828;4.416;2023-03-01T11:27:55;24.80;58.30
19880;DHT22;10102;50.828;4.416;2023-03-01T11:30:27;25.40;56.90
19880;DHT22;10102;50.828;4.416;2023-03-01T11:38:53;25.10;55.40
19880;DHT22;10102;50.828;4.416;2023-03-01T11:41:31;24.60;55.00
19880;DHT22;10102;50.828;4.416;2023-03-01T12:03:14;29.70;48.20
19880;DHT22;10102;50.828;4.416;2023-03-01T12:08:35;29.50;47.20
19880;DHT22;10102;50.828;4.416;2023-03-01T12:14:01;28.80;46.50
19880;DHT22;10102;50.828;4.416;2023-03-01T12:16:40;27.50;46.90
19880;DHT22;10102;50.828;4.416;2023-03-01T12:24:37;28.50;46.70
19880;DHT22;10102;50.828;4.416;2023-03-01T12:32:47;29.60;45.50
19880;DHT22;10102;50.828;4.416;2023-03-01T12:41:11;31.30;43.20
19880;DHT22;10102;50.828;4.416;2023-03-01T12:44:29;30.90;43.90
19880;DHT22;10102;50.828;4.416;2023-03-01T12:47:13;30.50;43.20
19880;DHT22;10102;50.828;4.416;2023-03-01T12:49:57;30.70;44.10
19880;DHT22;10102;50.828;4.416;2023-03-01T12:55:33;31.60;43.30
19880;DHT22;10102;50.828;4.416;2023-03-01T13:00:38;32.20;42.20
19880;DHT22;10102;50.828;4.416;2023-03-01T13:08:30;32.10;41.50
19880;DHT22;10102;50.828;4.416;2023-03-01T13:11:19;31.40;41.40
19880;DHT22;10102;50.828;4.416;2023-03-01T13:13:46;31.00;42.30
19880;DHT22;10102;50.828;4.416;2023-03-01T13:19:28;28.30;43.90
19880;DHT22;10102;50.828;4.416;2023-03-01T13:21:54;24.70;46.60
19880;DHT22;10102;50.828;4.416;2023-03-01T13:24:39;22.10;49.90
19880;DHT22;10102;50.828;4.416;2023-03-01T13:27:18;19.80;54.50
19880;DHT22;10102;50.828;4.416;2023-03-01T13:32:36;16.80;61.50
19880;DHT22;10102;50.828;4.416;2023-03-01T13:37:41;14.10;83.10
19880;DHT22;10102;50.828;4.416;2023-03-01T13:43:22;13.10;83.70
19880;DHT22;10102;50.828;4.416;2023-03-01T13:45:48;12.70;70.30
19880;DHT22;10102;50.828;4.416;2023-03-01T13:48:45;12.20;69.90
19880;DHT22;10102;50.828;4.416;2023-03-01T13:51:11;11.80;90.50
19880;DHT22;10102;50.828;4.416;2023-03-01T13:53:42;11.60;91.30
19880;DHT22;10102;50.828;4.416;2023-03-01T13:58:53;11.60;80.40
19880;DHT22;10102;50.828;4.416;2023-03-01T14:03:51;10.90;91.60
19880;DHT22;10102;50.828;4.416;2023-03-01T14:06:20;10.70;92.20
19880;DHT22;10102;50.828;4.416;2023-03-01T14:08:49;10.70;92.70
19880;DHT22;10102;50.828;4.416;2023-03-01T14:14:26;10.60;92.90
19880;DHT22;10102;50.828;4.416;2023-03-01T14:19:29;10.50;93.10
19880;DHT22;10102;50.828;4.416;2023-03-01T14:24:52;10.50;93.50
19880;DHT22;10102;50.828;4.416;2023-03-01T14:27:18;10.40;93.60
19880;DHT22;10102;50.828;4.416;2023-03-01T14:29:54;10.50;94.80
19880;DHT22;10102;50.828;4.416;2023-03-01T14:32:23;10.40;93.00
19880;DHT22;10102;50.828;4.416;2023-03-01T14:34:50;10.50;94.00
19880;DHT22;10102;50.828;4.416;2023-03-01T14:37:31;10.40;87.30
19880;DHT22;10102;50.828;4.416;2023-03-01T14:39:59;10.20;94.40
19880;DHT22;10102;50.828;4.416;2023-03-01T14:42:31;9.90;94.40
19880;DHT22;10102;50.828;4.416;2023-03-01T14:45:01;10.20;94.10
19880;DHT22;10102;50.828;4.416;2023-03-01T14:47:28;10.10;87.50
19880;DHT22;10102;50.828;4.416;2023-03-01T14:50:05;10.60;95.40
19880;DHT22;10102;50.828;4.416;2023-03-01T14:52:38;9.60;94.70
19880;DHT22;10102;50.828;4.416;2023-03-01T14:55:20;10.10;90.00
19880;DHT22;10102;50.828;4.416;2023-03-01T14:57:51;9.90;95.60
19880;DHT22;10102;50.828;4.416;2023-03-01T15:00:37;10.40;89.40
19880;DHT22;10102;50.828;4.416;2023-03-01T15:03:19;9.90;83.50
19880;DHT22;10102;50.828;4.416;2023-03-01T15:05:47;10.20;95.00
19880;DHT22;10102;50.828;4.416;2023-03-01T15:08:18;10.50;95.20
19880;DHT22;10102;50.828;4.416;2023-03-01T15:13:29;10.00;95.50
19880;DHT22;10102;50.828;4.416;2023-03-01T15:16:11;10.10;95.40
19880;DHT22;10102;50.828;4.416;2023-03-01T15:18:43;10.00;85.90
19880;DHT22;10102;50.828;4.416;2023-03-01T15:21:21;9.80;96.60
19880;DHT22;10102;50.828;4.416;2023-03-01T15:24:20;10.20;95.50
19880;DHT22;10102;50.828;4.416;2023-03-01T15:26:58;10.00;95.50
19880;DHT22;10102;50.828;4.416;2023-03-01T15:29:31;10.00;96.50
19880;DHT22;10102;50.828;4.416;2023-03-01T15:32:04;9.90;93.00
19880;DHT22;10102;50.828;4.416;2023-03-01T15:34:38;10.20;96.10
19880;DHT22;10102;50.828;4.416;2023-03-01T15:37:06;9.90;95.90
19880;DHT22;10102;50.828;4.416;2023-03-01T15:39:53;9.80;96.40
19880;DHT22;10102;50.828;4.416;2023-03-01T15:47:47;9.90;95.90
19880;DHT22;10102;50.828;4.416;2023-03-01T15:50:23;9.80;96.40
19880;DHT22;10102;50.828;4.416;2023-03-01T15:52:49;9.90;92.40
19880;DHT22;10102;50.828;4.416;2023-03-01T15:55:21;9.80;96.50
19880;DHT22;10102;50.828;4.416;2023-03-01T15:57:48;9.70;87.10
19880;DHT22;10102;50.828;4.416;2023-03-01T16:00:14;9.80;96.60
19880;DHT22;10102;50.828;4.416;2023-03-01T16:02:42;9.70;96.80
19880;DHT22;10102;50.828;4.416;2023-03-01T16:07:40;9.70;97.10
19880;DHT22;10102;50.828;4.416;2023-03-01T16:10:06;9.50;97.10
19880;DHT22;10102;50.828;4.416;2023-03-01T16:14:58;9.30;97.10
19880;DHT22;10102;50.828;4.416;2023-03-01T16:17:24;9.10;97.10
19880;DHT22;10102;50.828;4.416;2023-03-01T16:19:50;9.00;97.10
19880;DHT22;10102;50.828;4.416;2023-03-01T16:24:41;9.10;98.10
19880;DHT22;10102;50.828;4.416;2023-03-01T16:32:02;9.30;95.70
19880;DHT22;10102;50.828;4.416;2023-03-01T16:34:28;9.10;92.70
19880;DHT22;10102;50.828;4.416;2023-03-01T16:36:54;9.00;97.40
19880;DHT22;10102;50.828;4.416;2023-03-01T16:41:45;8.90;97.80
19880;DHT22;10102;50.828;4.416;2023-03-01T16:44:11;8.90;97.80
19880;DHT22;10102;50.828;4.416;2023-03-01T16:46:36;8.50;97.80
19880;DHT22;10102;50.828;4.416;2023-03-01T16:49:02;8.70;97.90
19880;DHT22;10102;50.828;4.416;2023-03-01T16:53:55;8.90;97.70
19880;DHT22;10102;50.828;4.416;2023-03-01T16:56:21;8.80;96.40
19880;DHT22;10102;50.828;4.416;2023-03-01T16:58:47;8.70;98.20
19880;DHT22;10102;50.828;4.416;2023-03-01T17:01:17;8.60;98.40
19880;DHT22;10102;50.828;4.416;2023-03-01T17:03:44;8.60;98.40
19880;DHT22;10102;50.828;4.416;2023-03-01T17:06:12;8.60;98.60
19880;DHT22;10102;50.828;4.416;2023-03-01T17:08:39;8.50;90.90
19880;DHT22;10102;50.828;4.416;2023-03-01T17:11:11;8.90;99.00
19880;DHT22;10102;50.828;4.416;2023-03-01T17:13:38;8.70;99.10
19880;DHT22;10102;50.828;4.416;2023-03-01T17:16:09;8.00;89.60
19880;DHT22;10102;50.828;4.416;2023-03-01T17:18:36;8.50;99.40
19880;DHT22;10102;50.828;4.416;2023-03-01T17:21:02;8.40;92.80
19880;DHT22;10102;50.828;4.416;2023-03-01T17:23:30;8.20;99.70
19880;DHT22;10102;50.828;4.416;2023-03-01T17:25:56;8.40;99.80
19880;DHT22;10102;50.828;4.416;2023-03-01T17:28:24;8.40;98.60
19880;DHT22;10102;50.828;4.416;2023-03-01T17:30:50;8.40;99.90
19880;DHT22;10102;50.828;4.416;2023-03-01T17:33:16;8.10;99.90
19880;DHT22;10102;50.828;4.416;2023-03-01T17:38:12;8.40;99.90
19880;DHT22;10102;50.828;4.416;2023-03-01T17:40:38;8.30;93.50
19880;DHT22;10102;50.828;4.416;2023-03-01T17:43:04;8.20;99.90
19880;DHT22;10102;50.828;4.416;2023-03-01T17:47:56;8.20;99.90
19880;DHT22;10102;50.828;4.416;2023-03-01T17:50:21;8.10;99.90
19880;DHT22;10102;50.828;4.416;2023-03-01T17:52:47;8.00;99.90
19880;DHT22;10102;50.828;4.416;2023-03-01T17:55:14;7.60;99.90
19880;DHT22;10102;50.828;4.416;2023-03-01T17:57:40;7.90;99.90
19880;DHT22;10102;50.828;4.416;2023-03-01T18:00:09;7.90;99.90
19880;DHT22;10102;50.828;4.416;2023-03-01T18:02:36;8.00;99.90
19880;DHT22;10102;50.828;4.416;2023-03-01T18:05:02;8.30;99.90
19880;DHT22;10102;50.828;4.416;2023-03-01T18:07:28;7.80;99.90
19880;DHT22;10102;50.828;4.416;2023-03-01T18:09:54;7.80;95.20
19880;DHT22;10102;50.828;4.416;2023-03-01T18:12:20;7.80;99.90
19880;DHT22;10102;50.828;4.416;2023-03-01T18:17:12;7.70;99.90
19880;DHT22;10102;50.828;4.416;2023-03-01T18:19:39;7.60;99.90
19880;DHT22;10102;50.828;4.416;2023-03-01T18:22:08;7.50;99.90
19880;DHT22;10102;50.828;4.416;2023-03-01T18:24:35;7.60;99.90
19880;DHT22;10102;50.828;4.416;2023-03-01T18:27:01;7.60;99.90
19880;DHT22;10102;50.828;4.416;2023-03-01T18:29:27;7.60;99.90
19880;DHT22;10102;50.828;4.416;2023-03-01T18:31:53;7.60;99.90
19880;DHT22;10102;50.828;4.416;2023-03-01T18:36:44;7.40;99.90
19880;DHT22;10102;50.828;4.416;2023-03-01T18:39:10;7.30;97.50
19880;DHT22;10102;50.828;4.416;2023-03-01T18:41:36;7.30;99.90
19880;DHT22;10102;50.828;4.416;2023-03-01T18:44:03;7.40;99.90
19880;DHT22;10102;50.828;4.416;2023-03-01T18:46:29;7.20;97.30
19880;DHT22;10102;50.828;4.416;2023-03-01T18:51:26;7.20;99.90
19880;DHT22;10102;50.828;4.416;2023-03-01T18:53:52;7.20;99.90
19880;DHT22;10102;50.828;4.416;2023-03-01T18:56:18;7.10;99.90
19880;DHT22;10102;50.828;4.416;2023-03-01T18:58:44;7.20;99.90
19880;DHT22;10102;50.828;4.416;2023-03-01T19:01:18;7.30;99.90
19880;DHT22;10102;50.828;4.416;2023-03-01T19:03:44;7.10;99.90
19880;DHT22;10102;50.828;4.416;2023-03-01T19:06:10;7.20;99.90
19880;DHT22;10102;50.828;4.416;2023-03-01T19:08:36;7.10;99.90
19880;DHT22;10102;50.828;4.416;2023-03-01T19:11:04;7.10;99.90
19880;DHT22;10102;50.828;4.416;2023-03-01T19:13:31;7.00;99.90
19880;DHT22;10102;50.828;4.416;2023-03-01T19:16:18;7.00;99.90
19880;DHT22;10102;50.828;4.416;2023-03-01T19:18:45;6.90;99.90
19880;DHT22;10102;50.828;4.416;2023-03-01T19:21:20;6.90;99.90
19880;DHT22;10102;50.828;4.416;2023-03-01T19:23:47;6.90;99.90
19880;DHT22;10102;50.828;4.416;2023-03-01T19:26:15;6.90;99.90
19880;DHT22;10102;50.828;4.416;2023-03-01T19:28:41;6.80;99.90
19880;DHT22;10102;50.828;4.416;2023-03-01T19:31:10;6.70;99.90
19880;DHT22;10102;50.828;4.416;2023-03-01T19:33:37;6.70;99.90
19880;DHT22;10102;50.828;4.416;2023-03-01T19:36:05;6.60;99.10
19880;DHT22;10102;50.828;4.416;2023-03-01T19:38:33;6.60;99.40
19880;DHT22;10102;50.828;4.416;2023-03-01T19:41:10;6.60;99.90
19880;DHT22;10102;50.828;4.416;2023-03-01T19:43:36;6.60;99.90